sensor_id;sensor_type;location;lat;lon;timestamp;temperature;humidity
16532;DHT22;66872;63.142;14.482;2023-09-07T00:00:20;17.40;52.70
16532;DHT22;66872;63.142;14.482;2023-09-07T00:02:46;17.40;52.80
16532;DHT22;66872;63.142;14.482;2023-09-07T00:05:12;17.40;52.80
16532;DHT22;66872;63.142;14.482;2023-09-07T00:07:38;17.40;52.80
16532;DHT22;66872;63.142;14.482;2023-09-07T00:10:05;17.40;52.90
16532;DHT22;66872;63.142;14.482;2023-09-07T00:12:30;17.30;52.80
16532;DHT22;66872;63.142;14.482;2023-09-07T00:14:57;17.30;52.80
16532;DHT22;66872;63.142;14.482;2023-09-07T00:17:23;17.40;52.90
16532;DHT22;66872;63.142;14.482;2023-09-07T00:19:49;17.30;52.90
16532;DHT22;66872;63.142;14.482;2023-09-07T00:22:17;17.30;52.90
16532;DHT22;66872;63.142;14.482;2023-09-07T00:24:43;17.30;52.90
16532;DHT22;66872;63.142;14.482;2023-09-07T00:27:09;17.30;52.90
16532;DHT22;66872;63.142;14.482;2023-09-07T00:29:37;17.30;52.90
16532;DHT22;66872;63.142;14.482;2023-09-07T00:32:03;17.30;53.00
16532;DHT22;66872;63.142;14.482;2023-09-07T00:34:29;17.30;53.00
16532;DHT22;66872;63.142;14.482;2023-09-07T00:36:55;17.30;53.10
16532;DHT22;66872;63.142;14.482;2023-09-07T00:39:20;17.30;53.10
16532;DHT22;66872;63.142;14.482;2023-09-07T00:41:46;17.20;53.00
16532;DHT22;66872;63.142;14.482;2023-09-07T00:44:12;17.20;53.10
16532;DHT22;66872;63.142;14.482;2023-09-07T00:46:37;17.20;53.10
16532;DHT22;66872;63.142;14.482;2023-09-07T00:49:03;17.20;53.10
16532;DHT22;66872;63.142;14.482;2023-09-07T00:51:30;17.20;53.10
16532;DHT22;66872;63.142;14.482;2023-09-07T00:53:56;17.10;53.00
16532;DHT22;66872;63.142;14.482;2023-09-07T00:56:22;17.10;53.10
16532;DHT22;66872;63.142;14.482;2023-09-07T00:58:49;17.10;53.10
16532;DHT22;66872;63.142;14.482;2023-09-07T01:01:15;17.20;53.20
16532;DHT22;66872;63.142;14.482;2023-09-07T01:03:40;17.10;53.20
16532;DHT22;66872;63.142;14.482;2023-09-07T01:06:30;17.10;53.20
16532;DHT22;66872;63.142;14.482;2023-09-07T01:09:03;17.10;53.20
16532;DHT22;66872;63.142;14.482;2023-09-07T01:11:36;17.10;53.20
16532;DHT22;66872;63.142;14.482;2023-09-07T01:14:02;17.10;53.20
16532;DHT22;66872;63.142;14.482;2023-09-07T01:16:30;17.10;53.30
16532;DHT22;66872;63.142;14.482;2023-09-07T01:18:56;17.10;53.30
16532;DHT22;66872;63.142;14.482;2023-09-07T01:21:22;17.10;53.30
16532;DHT22;66872;63.142;14.482;2023-09-07T01:23:49;17.10;53.30
16532;DHT22;66872;63.142;14.482;2023-09-07T01:26:15;17.00;53.20
16532;DHT22;66872;63.142;14.482;2023-09-07T01:28:41;17.00;53.30
16532;DHT22;66872;63.142;14.482;2023-09-07T01:31:07;17.00;53.30
16532;DHT22;66872;63.142;14.482;2023-09-07T01:33:33;17.00;53.30
16532;DHT22;66872;63.142;14.482;2023-09-07T01:35:58;17.00;53.30
16532;DHT22;66872;63.142;14.482;2023-09-07T01:38:24;17.00;53.30
16532;DHT22;66872;63.142;14.482;2023-09-07T01:40:50;17.00;53.40
16532;DHT22;66872;63.142;14.482;2023-09-07T01:43:15;17.00;53.40
16532;DHT22;66872;63.142;14.482;2023-09-07T01:45:41;17.00;53.50
16532;DHT22;66872;63.142;14.482;2023-09-07T01:48:11;17.00;53.40
16532;DHT22;66872;63.142;14.482;2023-09-07T01:50:37;16.90;53.40
16532;DHT22;66872;63.142;14.482;2023-09-07T01:53:03;16.90;53.40
16532;DHT22;66872;63.142;14.482;2023-09-07T01:55:30;16.90;53.40
16532;DHT22;66872;63.142;14.482;2023-09-07T01:57:56;17.00;53.50
16532;DHT22;66872;63.142;14.482;2023-09-07T02:00:21;17.00;53.50
16532;DHT22;66872;63.142;14.482;2023-09-07T02:02:47;17.00;53.50
16532;DHT22;66872;63.142;14.482;2023-09-07T02:05:13;17.00;53.60
16532;DHT22;66872;63.142;14.482;2023-09-07T02:07:38;17.00;53.60
16532;DHT22;66872;63.142;14.482;2023-09-07T02:10:04;16.90;54.10
16532;DHT22;66872;63.142;14.482;2023-09-07T02:12:30;16.90;53.50
16532;DHT22;66872;63.142;14.482;2023-09-07T02:14:56;16.90;53.50
16532;DHT22;66872;63.142;14.482;2023-09-07T02:17:22;16.90;53.50
16532;DHT22;66872;63.142;14.482;2023-09-07T02:19:47;16.90;54.10
16532;DHT22;66872;63.142;14.482;2023-09-07T02:22:13;16.90;53.50
16532;DHT22;66872;63.142;14.482;2023-09-07T02:24:39;16.90;53.50
16532;DHT22;66872;63.142;14.482;2023-09-07T02:27:04;16.90;53.60
16532;DHT22;66872;63.142;14.482;2023-09-07T02:29:30;16.90;53.50
16532;DHT22;66872;63.142;14.482;2023-09-07T02:31:56;16.90;53.60
16532;DHT22;66872;63.142;14.482;2023-09-07T02:34:23;16.90;53.60
16532;DHT22;66872;63.142;14.482;2023-09-07T02:36:48;16.80;53.50
16532;DHT22;66872;63.142;14.482;2023-09-07T02:39:14;16.80;53.50
16532;DHT22;66872;63.142;14.482;2023-09-07T02:41:40;16.80;53.60
16532;DHT22;66872;63.142;14.482;2023-09-07T02:44:05;16.80;53.60
16532;DHT22;66872;63.142;14.482;2023-09-07T02:46:31;16.80;53.60
16532;DHT22;66872;63.142;14.482;2023-09-07T02:48:57;16.80;53.60
16532;DHT22;66872;63.142;14.482;2023-09-07T02:51:26;16.80;53.60
16532;DHT22;66872;63.142;14.482;2023-09-07T02:53:51;16.80;53.60
16532;DHT22;66872;63.142;14.482;2023-09-07T02:56:17;16.80;53.60
16532;DHT22;66872;63.142;14.482;2023-09-07T02:58:43;16.80;53.60
16532;DHT22;66872;63.142;14.482;2023-09-07T03:01:10;16.80;53.60
16532;DHT22;66872;63.142;14.482;2023-09-07T03:03:36;16.80;53.60
16532;DHT22;66872;63.142;14.482;2023-09-07T03:06:13;16.80;53.60
16532;DHT22;66872;63.142;14.482;2023-09-07T03:08:41;16.80;53.70
16532;DHT22;66872;63.142;14.482;2023-09-07T03:11:09;16.80;53.70
16532;DHT22;66872;63.142;14.482;2023-09-07T03:13:35;16.80;53.70
16532;DHT22;66872;63.142;14.482;2023-09-07T03:16:03;16.80;53.70
16532;DHT22;66872;63.142;14.482;2023-09-07T03:18:29;16.80;53.70
16532;DHT22;66872;63.142;14.482;2023-09-07T03:20:57;16.80;53.70
16532;DHT22;66872;63.142;14.482;2023-09-07T03:23:23;16.80;53.70
16532;DHT22;66872;63.142;14.482;2023-09-07T03:25:49;16.70;53.60
16532;DHT22;66872;63.142;14.482;2023-09-07T03:28:15;16.80;53.70
16532;DHT22;66872;63.142;14.482;2023-09-07T03:30:40;16.70;53.60
16532;DHT22;66872;63.142;14.482;2023-09-07T03:33:06;16.70;53.60
16532;DHT22;66872;63.142;14.482;2023-09-07T03:35:32;16.70;53.60
16532;DHT22;66872;63.142;14.482;2023-09-07T03:37:58;16.70;53.60
16532;DHT22;66872;63.142;14.482;2023-09-07T03:40:24;16.70;53.60
16532;DHT22;66872;63.142;14.482;2023-09-07T03:42:49;16.70;53.60
16532;DHT22;66872;63.142;14.482;2023-09-07T03:45:15;16.70;53.70
16532;DHT22;66872;63.142;14.482;2023-09-07T03:47:42;16.70;53.60
16532;DHT22;66872;63.142;14.482;2023-09-07T03:50:08;16.70;53.70
16532;DHT22;66872;63.142;14.482;2023-09-07T03:52:33;16.70;53.60
16532;DHT22;66872;63.142;14.482;2023-09-07T03:55:00;16.70;53.70
16532;DHT22;66872;63.142;14.482;2023-09-07T03:57:26;16.70;53.70
16532;DHT22;66872;63.142;14.482;2023-09-07T03:59:52;16.70;53.70
16532;DHT22;66872;63.142;14.482;2023-09-07T04:02:18;16.70;53.70
16532;DHT22;66872;63.142;14.482;2023-09-07T04:04:49;16.70;54.30
16532;DHT22;66872;63.142;14.482;2023-09-07T04:07:15;16.70;53.70
16532;DHT22;66872;63.142;14.482;2023-09-07T04:09:41;16.70;53.70
16532;DHT22;66872;63.142;14.482;2023-09-07T04:12:06;16.70;53.70
16532;DHT22;66872;63.142;14.482;2023-09-07T04:14:32;16.70;53.70
16532;DHT22;66872;63.142;14.482;2023-09-07T04:16:58;16.70;53.70
16532;DHT22;66872;63.142;14.482;2023-09-07T04:19:24;16.70;53.70
16532;DHT22;66872;63.142;14.482;2023-09-07T04:21:49;16.70;53.70
16532;DHT22;66872;63.142;14.482;2023-09-07T04:24:16;16.70;53.70
16532;DHT22;66872;63.142;14.482;2023-09-07T04:26:42;16.70;53.70
16532;DHT22;66872;63.142;14.482;2023-09-07T04:29:08;16.70;53.60
16532;DHT22;66872;63.142;14.482;2023-09-07T04:31:34;16.70;53.60
16532;DHT22;66872;63.142;14.482;2023-09-07T04:34:00;16.70;53.60
16532;DHT22;66872;63.142;14.482;2023-09-07T04:36:26;16.70;53.60
16532;DHT22;66872;63.142;14.482;2023-09-07T04:38:52;16.70;53.60
16532;DHT22;66872;63.142;14.482;2023-09-07T04:41:17;16.70;53.60
16532;DHT22;66872;63.142;14.482;2023-09-07T04:43:43;16.70;53.50
16532;DHT22;66872;63.142;14.482;2023-09-07T04:46:13;16.70;53.50
16532;DHT22;66872;63.142;14.482;2023-09-07T04:48:39;16.70;53.50
16532;DHT22;66872;63.142;14.482;2023-09-07T04:51:09;16.70;53.50
16532;DHT22;66872;63.142;14.482;2023-09-07T04:53:37;16.70;53.50
16532;DHT22;66872;63.142;14.482;2023-09-07T04:56:04;16.70;53.50
16532;DHT22;66872;63.142;14.482;2023-09-07T04:58:30;16.70;53.50
16532;DHT22;66872;63.142;14.482;2023-09-07T05:01:04;16.80;53.50
16532;DHT22;66872;63.142;14.482;2023-09-07T05:03:30;16.80;53.50
16532;DHT22;66872;63.142;14.482;2023-09-07T05:05:56;16.80;53.50
16532;DHT22;66872;63.142;14.482;2023-09-07T05:08:23;16.80;53.50
16532;DHT22;66872;63.142;14.482;2023-09-07T05:11:12;16.80;53.40
16532;DHT22;66872;63.142;14.482;2023-09-07T05:13:38;16.80;53.40
16532;DHT22;66872;63.142;14.482;2023-09-07T05:16:03;16.80;53.40
16532;DHT22;66872;63.142;14.482;2023-09-07T05:18:30;16.80;53.30
16532;DHT22;66872;63.142;14.482;2023-09-07T05:20:56;16.80;53.30
16532;DHT22;66872;63.142;14.482;2023-09-07T05:23:22;16.90;53.30
16532;DHT22;66872;63.142;14.482;2023-09-07T05:25:49;16.90;53.20
16532;DHT22;66872;63.142;14.482;2023-09-07T05:28:18;16.90;53.20
16532;DHT22;66872;63.142;14.482;2023-09-07T05:30:44;16.90;53.10
16532;DHT22;66872;63.142;14.482;2023-09-07T05:33:11;16.90;53.00
16532;DHT22;66872;63.142;14.482;2023-09-07T05:35:37;16.90;53.00
16532;DHT22;66872;63.142;14.482;2023-09-07T05:38:06;17.00;53.00
16532;DHT22;66872;63.142;14.482;2023-09-07T05:40:36;17.00;52.90
16532;DHT22;66872;63.142;14.482;2023-09-07T05:43:02;17.00;52.70
16532;DHT22;66872;63.142;14.482;2023-09-07T05:45:39;17.10;52.80
16532;DHT22;66872;63.142;14.482;2023-09-07T05:48:05;17.10;52.70
16532;DHT22;66872;63.142;14.482;2023-09-07T05:50:33;17.10;52.60
16532;DHT22;66872;63.142;14.482;2023-09-07T05:52:59;17.20;52.50
16532;DHT22;66872;63.142;14.482;2023-09-07T05:55:25;17.20;52.50
16532;DHT22;66872;63.142;14.482;2023-09-07T05:57:53;17.20;52.40
16532;DHT22;66872;63.142;14.482;2023-09-07T06:00:19;17.20;52.40
16532;DHT22;66872;63.142;14.482;2023-09-07T06:02:45;17.30;52.40
16532;DHT22;66872;63.142;14.482;2023-09-07T06:05:11;17.30;52.20
16532;DHT22;66872;63.142;14.482;2023-09-07T06:07:37;17.40;52.20
16532;DHT22;66872;63.142;14.482;2023-09-07T06:10:03;17.40;52.10
16532;DHT22;66872;63.142;14.482;2023-09-07T06:12:31;17.40;52.00
16532;DHT22;66872;63.142;14.482;2023-09-07T06:14:57;17.40;52.00
16532;DHT22;66872;63.142;14.482;2023-09-07T06:17:22;17.40;51.90
16532;DHT22;66872;63.142;14.482;2023-09-07T06:19:48;17.40;51.90
16532;DHT22;66872;63.142;14.482;2023-09-07T06:22:13;17.50;52.00
16532;DHT22;66872;63.142;14.482;2023-09-07T06:24:40;17.50;51.90
16532;DHT22;66872;63.142;14.482;2023-09-07T06:27:05;17.50;51.80
16532;DHT22;66872;63.142;14.482;2023-09-07T06:29:31;17.50;51.70
16532;DHT22;66872;63.142;14.482;2023-09-07T06:31:57;17.60;51.60
16532;DHT22;66872;63.142;14.482;2023-09-07T06:34:23;17.60;51.60
16532;DHT22;66872;63.142;14.482;2023-09-07T06:36:49;17.60;51.60
16532;DHT22;66872;63.142;14.482;2023-09-07T06:39:15;17.60;51.50
16532;DHT22;66872;63.142;14.482;2023-09-07T06:41:41;17.60;51.50
16532;DHT22;66872;63.142;14.482;2023-09-07T06:44:07;17.60;51.50
16532;DHT22;66872;63.142;14.482;2023-09-07T06:46:33;17.60;51.50
16532;DHT22;66872;63.142;14.482;2023-09-07T06:48:59;17.60;51.50
16532;DHT22;66872;63.142;14.482;2023-09-07T06:51:24;17.60;51.50
16532;DHT22;66872;63.142;14.482;2023-09-07T06:53:50;17.60;51.50
16532;DHT22;66872;63.142;14.482;2023-09-07T06:56:16;17.60;51.50
16532;DHT22;66872;63.142;14.482;2023-09-07T06:58:41;17.60;51.50
16532;DHT22;66872;63.142;14.482;2023-09-07T07:01:07;17.60;51.60
16532;DHT22;66872;63.142;14.482;2023-09-07T07:03:33;17.60;51.60
16532;DHT22;66872;63.142;14.482;2023-09-07T07:06:00;17.60;51.60
16532;DHT22;66872;63.142;14.482;2023-09-07T07:08:25;17.60;51.60
16532;DHT22;66872;63.142;14.482;2023-09-07T07:10:51;17.70;51.60
16532;DHT22;66872;63.142;14.482;2023-09-07T07:13:17;17.70;51.40
16532;DHT22;66872;63.142;14.482;2023-09-07T07:15:42;17.70;51.20
16532;DHT22;66872;63.142;14.482;2023-09-07T07:18:08;17.70;51.20
16532;DHT22;66872;63.142;14.482;2023-09-07T07:20:38;17.80;51.20
16532;DHT22;66872;63.142;14.482;2023-09-07T07:23:04;17.70;51.20
16532;DHT22;66872;63.142;14.482;2023-09-07T07:25:32;17.70;51.20
16532;DHT22;66872;63.142;14.482;2023-09-07T07:28:02;17.70;51.30
16532;DHT22;66872;63.142;14.482;2023-09-07T07:30:38;17.70;51.30
16532;DHT22;66872;63.142;14.482;2023-09-07T07:33:06;17.70;51.30
16532;DHT22;66872;63.142;14.482;2023-09-07T07:35:33;17.70;51.20
16532;DHT22;66872;63.142;14.482;2023-09-07T07:38:00;17.70;51.30
16532;DHT22;66872;63.142;14.482;2023-09-07T07:40:26;17.70;51.30
16532;DHT22;66872;63.142;14.482;2023-09-07T07:42:52;17.70;51.30
16532;DHT22;66872;63.142;14.482;2023-09-07T07:45:18;17.70;52.00
16532;DHT22;66872;63.142;14.482;2023-09-07T07:47:46;17.70;51.30
16532;DHT22;66872;63.142;14.482;2023-09-07T07:50:12;17.80;51.30
16532;DHT22;66872;63.142;14.482;2023-09-07T07:52:38;17.80;51.20
16532;DHT22;66872;63.142;14.482;2023-09-07T07:55:04;17.90;51.10
16532;DHT22;66872;63.142;14.482;2023-09-07T07:57:31;17.90;50.90
16532;DHT22;66872;63.142;14.482;2023-09-07T07:59:56;17.90;50.90
16532;DHT22;66872;63.142;14.482;2023-09-07T08:02:22;18.00;50.90
16532;DHT22;66872;63.142;14.482;2023-09-07T08:04:48;17.90;50.80
16532;DHT22;66872;63.142;14.482;2023-09-07T08:07:13;17.90;50.80
16532;DHT22;66872;63.142;14.482;2023-09-07T08:09:39;17.90;51.40
16532;DHT22;66872;63.142;14.482;2023-09-07T08:12:05;17.90;50.90
16532;DHT22;66872;63.142;14.482;2023-09-07T08:14:31;17.90;50.90
16532;DHT22;66872;63.142;14.482;2023-09-07T08:16:57;17.90;50.90
16532;DHT22;66872;63.142;14.482;2023-09-07T08:19:23;17.90;51.00
16532;DHT22;66872;63.142;14.482;2023-09-07T08:21:50;17.90;51.00
16532;DHT22;66872;63.142;14.482;2023-09-07T08:24:15;17.90;51.00
16532;DHT22;66872;63.142;14.482;2023-09-07T08:26:41;17.90;51.00
16532;DHT22;66872;63.142;14.482;2023-09-07T08:29:08;17.90;50.90
16532;DHT22;66872;63.142;14.482;2023-09-07T08:31:38;17.90;50.90
16532;DHT22;66872;63.142;14.482;2023-09-07T08:34:05;17.90;50.90
16532;DHT22;66872;63.142;14.482;2023-09-07T08:36:32;17.90;50.90
16532;DHT22;66872;63.142;14.482;2023-09-07T08:39:03;17.90;51.00
16532;DHT22;66872;63.142;14.482;2023-09-07T08:41:37;17.90;51.00
16532;DHT22;66872;63.142;14.482;2023-09-07T08:44:18;17.90;50.90
16532;DHT22;66872;63.142;14.482;2023-09-07T08:46:45;17.90;50.90
16532;DHT22;66872;63.142;14.482;2023-09-07T08:49:11;17.90;50.90
16532;DHT22;66872;63.142;14.482;2023-09-07T08:51:37;18.00;50.90
16532;DHT22;66872;63.142;14.482;2023-09-07T08:54:04;18.00;50.80
16532;DHT22;66872;63.142;14.482;2023-09-07T08:56:30;18.00;50.70
16532;DHT22;66872;63.142;14.482;2023-09-07T08:58:56;18.10;50.80
16532;DHT22;66872;63.142;14.482;2023-09-07T09:01:21;18.10;50.60
16532;DHT22;66872;63.142;14.482;2023-09-07T09:03:51;18.10;50.60
16532;DHT22;66872;63.142;14.482;2023-09-07T09:06:19;18.10;50.60
16532;DHT22;66872;63.142;14.482;2023-09-07T09:08:51;18.10;50.50
16532;DHT22;66872;63.142;14.482;2023-09-07T09:11:18;18.10;50.40
16532;DHT22;66872;63.142;14.482;2023-09-07T09:13:44;18.20;50.50
16532;DHT22;66872;63.142;14.482;2023-09-07T09:16:10;18.10;50.40
16532;DHT22;66872;63.142;14.482;2023-09-07T09:18:37;18.20;50.50
16532;DHT22;66872;63.142;14.482;2023-09-07T09:21:03;18.20;50.50
16532;DHT22;66872;63.142;14.482;2023-09-07T09:23:35;18.20;50.40
16532;DHT22;66872;63.142;14.482;2023-09-07T09:26:02;18.20;50.50
16532;DHT22;66872;63.142;14.482;2023-09-07T09:28:31;18.20;50.50
16532;DHT22;66872;63.142;14.482;2023-09-07T09:30:58;18.20;50.50
16532;DHT22;66872;63.142;14.482;2023-09-07T09:33:25;18.20;50.50
16532;DHT22;66872;63.142;14.482;2023-09-07T09:35:52;18.10;50.40
16532;DHT22;66872;63.142;14.482;2023-09-07T09:38:18;18.20;51.10
16532;DHT22;66872;63.142;14.482;2023-09-07T09:40:44;18.20;50.50
16532;DHT22;66872;63.142;14.482;2023-09-07T09:43:12;18.20;50.40
16532;DHT22;66872;63.142;14.482;2023-09-07T09:45:38;18.20;50.30
16532;DHT22;66872;63.142;14.482;2023-09-07T09:48:05;18.30;50.30
16532;DHT22;66872;63.142;14.482;2023-09-07T09:50:32;18.30;50.90
16532;DHT22;66872;63.142;14.482;2023-09-07T09:53:07;18.30;50.20
16532;DHT22;66872;63.142;14.482;2023-09-07T09:55:36;18.30;50.10
16532;DHT22;66872;63.142;14.482;2023-09-07T09:58:02;18.40;50.20
16532;DHT22;66872;63.142;14.482;2023-09-07T10:00:28;18.40;50.10
16532;DHT22;66872;63.142;14.482;2023-09-07T10:03:04;18.40;50.00
16532;DHT22;66872;63.142;14.482;2023-09-07T10:05:31;18.40;49.90
16532;DHT22;66872;63.142;14.482;2023-09-07T10:08:24;18.50;50.00
16532;DHT22;66872;63.142;14.482;2023-09-07T10:10:53;18.40;49.90
16532;DHT22;66872;63.142;14.482;2023-09-07T10:13:37;18.40;49.90
16532;DHT22;66872;63.142;14.482;2023-09-07T10:16:05;18.40;49.90
16532;DHT22;66872;63.142;14.482;2023-09-07T10:18:35;18.40;49.90
16532;DHT22;66872;63.142;14.482;2023-09-07T10:21:01;18.40;50.00
16532;DHT22;66872;63.142;14.482;2023-09-07T10:23:39;18.40;50.00
16532;DHT22;66872;63.142;14.482;2023-09-07T10:26:17;18.40;50.10
16532;DHT22;66872;63.142;14.482;2023-09-07T10:28:44;18.30;50.00
16532;DHT22;66872;63.142;14.482;2023-09-07T10:31:17;18.30;50.10
16532;DHT22;66872;63.142;14.482;2023-09-07T10:33:44;18.30;50.10
16532;DHT22;66872;63.142;14.482;2023-09-07T10:36:29;18.30;50.10
16532;DHT22;66872;63.142;14.482;2023-09-07T10:38:56;18.30;50.10
16532;DHT22;66872;63.142;14.482;2023-09-07T10:41:22;18.30;50.20
16532;DHT22;66872;63.142;14.482;2023-09-07T10:43:58;18.30;50.20
16532;DHT22;66872;63.142;14.482;2023-09-07T10:46:24;18.30;50.20
16532;DHT22;66872;63.142;14.482;2023-09-07T10:48:51;18.30;50.30
16532;DHT22;66872;63.142;14.482;2023-09-07T10:51:20;18.30;50.20
16532;DHT22;66872;63.142;14.482;2023-09-07T10:53:46;18.30;50.30
16532;DHT22;66872;63.142;14.482;2023-09-07T10:56:11;18.30;50.30
16532;DHT22;66872;63.142;14.482;2023-09-07T10:58:38;18.30;50.30
16532;DHT22;66872;63.142;14.482;2023-09-07T11:01:08;18.20;50.20
16532;DHT22;66872;63.142;14.482;2023-09-07T11:03:35;18.30;50.30
16532;DHT22;66872;63.142;14.482;2023-09-07T11:06:07;18.30;50.40
16532;DHT22;66872;63.142;14.482;2023-09-07T11:08:34;18.30;50.40
16532;DHT22;66872;63.142;14.482;2023-09-07T11:11:01;18.20;50.30
16532;DHT22;66872;63.142;14.482;2023-09-07T11:13:28;18.20;50.30
16532;DHT22;66872;63.142;14.482;2023-09-07T11:15:57;18.30;50.40
16532;DHT22;66872;63.142;14.482;2023-09-07T11:18:24;18.30;50.40
16532;DHT22;66872;63.142;14.482;2023-09-07T11:20:51;18.30;50.30
16532;DHT22;66872;63.142;14.482;2023-09-07T11:23:17;18.30;50.40
16532;DHT22;66872;63.142;14.482;2023-09-07T11:25:43;18.30;50.40
16532;DHT22;66872;63.142;14.482;2023-09-07T11:28:09;18.30;50.30
16532;DHT22;66872;63.142;14.482;2023-09-07T11:30:49;18.30;50.30
16532;DHT22;66872;63.142;14.482;2023-09-07T11:33:15;18.30;50.30
16532;DHT22;66872;63.142;14.482;2023-09-07T11:35:41;18.30;50.30
16532;DHT22;66872;63.142;14.482;2023-09-07T11:38:07;18.30;50.30
16532;DHT22;66872;63.142;14.482;2023-09-07T11:40:35;18.30;50.40
16532;DHT22;66872;63.142;14.482;2023-09-07T11:43:01;18.30;50.30
16532;DHT22;66872;63.142;14.482;2023-09-07T11:45:26;18.30;50.30
16532;DHT22;66872;63.142;14.482;2023-09-07T11:47:53;18.30;50.30
16532;DHT22;66872;63.142;14.482;2023-09-07T11:50:18;18.30;50.30
16532;DHT22;66872;63.142;14.482;2023-09-07T11:52:45;18.30;50.20
16532;DHT22;66872;63.142;14.482;2023-09-07T11:55:11;18.30;50.20
16532;DHT22;66872;63.142;14.482;2023-09-07T11:57:37;18.30;50.30
16532;DHT22;66872;63.142;14.482;2023-09-07T12:00:04;18.30;50.20
16532;DHT22;66872;63.142;14.482;2023-09-07T12:02:30;18.30;50.30
16532;DHT22;66872;63.142;14.482;2023-09-07T12:04:56;18.30;50.30
16532;DHT22;66872;63.142;14.482;2023-09-07T12:07:22;18.30;50.30
16532;DHT22;66872;63.142;14.482;2023-09-07T12:09:48;18.30;50.40
16532;DHT22;66872;63.142;14.482;2023-09-07T12:12:14;18.30;50.40
16532;DHT22;66872;63.142;14.482;2023-09-07T12:14:39;18.30;50.40
16532;DHT22;66872;63.142;14.482;2023-09-07T12:17:05;18.30;50.40
16532;DHT22;66872;63.142;14.482;2023-09-07T12:19:31;18.30;50.40
16532;DHT22;66872;63.142;14.482;2023-09-07T12:21:56;18.30;50.40
16532;DHT22;66872;63.142;14.482;2023-09-07T12:24:22;18.30;50.40
16532;DHT22;66872;63.142;14.482;2023-09-07T12:26:48;18.20;50.40
16532;DHT22;66872;63.142;14.482;2023-09-07T12:29:14;18.20;50.40
16532;DHT22;66872;63.142;14.482;2023-09-07T12:31:39;18.20;50.40
16532;DHT22;66872;63.142;14.482;2023-09-07T12:34:05;18.20;50.40
16532;DHT22;66872;63.142;14.482;2023-09-07T12:36:30;18.20;50.40
16532;DHT22;66872;63.142;14.482;2023-09-07T12:38:56;18.30;50.50
16532;DHT22;66872;63.142;14.482;2023-09-07T12:41:28;18.30;50.50
16532;DHT22;66872;63.142;14.482;2023-09-07T12:43:54;18.20;50.40
16532;DHT22;66872;63.142;14.482;2023-09-07T12:46:19;18.20;50.40
16532;DHT22;66872;63.142;14.482;2023-09-07T12:48:45;18.20;50.50
16532;DHT22;66872;63.142;14.482;2023-09-07T12:51:11;18.30;50.60
16532;DHT22;66872;63.142;14.482;2023-09-07T12:53:36;18.20;50.40
16532;DHT22;66872;63.142;14.482;2023-09-07T12:56:02;18.30;50.50
16532;DHT22;66872;63.142;14.482;2023-09-07T12:58:28;18.30;50.50
16532;DHT22;66872;63.142;14.482;2023-09-07T13:00:54;18.20;50.40
16532;DHT22;66872;63.142;14.482;2023-09-07T13:03:20;18.30;50.50
16532;DHT22;66872;63.142;14.482;2023-09-07T13:05:46;18.30;50.50
16532;DHT22;66872;63.142;14.482;2023-09-07T13:08:11;18.30;50.50
16532;DHT22;66872;63.142;14.482;2023-09-07T13:10:37;18.30;50.50
16532;DHT22;66872;63.142;14.482;2023-09-07T13:13:04;18.30;50.60
16532;DHT22;66872;63.142;14.482;2023-09-07T13:15:29;18.20;50.50
16532;DHT22;66872;63.142;14.482;2023-09-07T13:17:55;18.20;50.50
16532;DHT22;66872;63.142;14.482;2023-09-07T13:20:21;18.20;50.50
16532;DHT22;66872;63.142;14.482;2023-09-07T13:22:47;18.20;50.60
16532;DHT22;66872;63.142;14.482;2023-09-07T13:25:12;18.20;50.60
16532;DHT22;66872;63.142;14.482;2023-09-07T13:27:38;18.20;50.60
16532;DHT22;66872;63.142;14.482;2023-09-07T13:30:05;18.20;50.60
16532;DHT22;66872;63.142;14.482;2023-09-07T13:32:31;18.20;50.60
16532;DHT22;66872;63.142;14.482;2023-09-07T13:34:58;18.30;50.60
16532;DHT22;66872;63.142;14.482;2023-09-07T13:37:23;18.30;50.60
16532;DHT22;66872;63.142;14.482;2023-09-07T13:39:49;18.30;50.60
16532;DHT22;66872;63.142;14.482;2023-09-07T13:42:15;18.30;50.60
16532;DHT22;66872;63.142;14.482;2023-09-07T13:44:41;18.30;50.60
16532;DHT22;66872;63.142;14.482;2023-09-07T13:47:06;18.30;50.60
16532;DHT22;66872;63.142;14.482;2023-09-07T13:49:34;18.20;50.50
16532;DHT22;66872;63.142;14.482;2023-09-07T13:51:59;18.30;50.60
16532;DHT22;66872;63.142;14.482;2023-09-07T13:54:25;18.30;50.60
16532;DHT22;66872;63.142;14.482;2023-09-07T13:56:51;18.30;50.70
16532;DHT22;66872;63.142;14.482;2023-09-07T13:59:16;18.30;50.70
16532;DHT22;66872;63.142;14.482;2023-09-07T14:01:42;18.30;50.70
16532;DHT22;66872;63.142;14.482;2023-09-07T14:04:08;18.30;50.70
16532;DHT22;66872;63.142;14.482;2023-09-07T14:06:33;18.30;50.70
16532;DHT22;66872;63.142;14.482;2023-09-07T14:08:59;18.20;50.60
16532;DHT22;66872;63.142;14.482;2023-09-07T14:11:24;18.30;50.80
16532;DHT22;66872;63.142;14.482;2023-09-07T14:13:50;18.20;50.70
16532;DHT22;66872;63.142;14.482;2023-09-07T14:16:18;18.30;50.70
16532;DHT22;66872;63.142;14.482;2023-09-07T14:18:44;18.20;50.70
16532;DHT22;66872;63.142;14.482;2023-09-07T14:21:10;18.30;50.80
16532;DHT22;66872;63.142;14.482;2023-09-07T14:23:35;18.20;50.70
16532;DHT22;66872;63.142;14.482;2023-09-07T14:26:02;18.30;50.80
16532;DHT22;66872;63.142;14.482;2023-09-07T14:28:28;18.30;50.80
16532;DHT22;66872;63.142;14.482;2023-09-07T14:30:54;18.30;50.80
16532;DHT22;66872;63.142;14.482;2023-09-07T14:33:20;18.30;50.80
16532;DHT22;66872;63.142;14.482;2023-09-07T14:35:47;18.30;50.80
16532;DHT22;66872;63.142;14.482;2023-09-07T14:38:12;18.30;50.80
16532;DHT22;66872;63.142;14.482;2023-09-07T14:40:38;18.30;50.80
16532;DHT22;66872;63.142;14.482;2023-09-07T14:43:04;18.30;50.80
16532;DHT22;66872;63.142;14.482;2023-09-07T14:45:31;18.30;50.80
16532;DHT22;66872;63.142;14.482;2023-09-07T14:47:57;18.30;50.80
16532;DHT22;66872;63.142;14.482;2023-09-07T14:50:22;18.30;50.80
16532;DHT22;66872;63.142;14.482;2023-09-07T14:52:48;18.30;50.80
16532;DHT22;66872;63.142;14.482;2023-09-07T14:55:14;18.30;50.80
16532;DHT22;66872;63.142;14.482;2023-09-07T14:57:40;18.30;50.80
16532;DHT22;66872;63.142;14.482;2023-09-07T15:00:07;18.30;50.80
16532;DHT22;66872;63.142;14.482;2023-09-07T15:02:33;18.30;50.80
16532;DHT22;66872;63.142;14.482;2023-09-07T15:04:59;18.30;50.80
16532;DHT22;66872;63.142;14.482;2023-09-07T15:07:24;18.30;50.80
16532;DHT22;66872;63.142;14.482;2023-09-07T15:09:50;18.30;50.80
16532;DHT22;66872;63.142;14.482;2023-09-07T15:12:16;18.30;50.80